Decoded Metar for YMTG ( in ) (IATA:) | Meteo·Mobile Aviation Weather
aviador You're here:

YMTG Decoded Metar

in
Report Time2019-02-16 07:00:00
UTC Time2019-02-16 08:04:27
Flight Rules vfr VFR
Wind160° at 10 kt
W.Decomp.*RWY 18: 9.4 kt HW 3.4 kt LCW
RWY 11: 6.4 kt HW 7.7 kt RCW
RWY 24: 1.7 kt HW 9.8 kt LCW
W.Rank160° ranks 10
Current wind is above 160° avg. (8.5)
Visibility9999 m
Phenomena:N/A
Clouds:N/A
Expected CloudBase > 3,600 ft AGL from Temp-Dew spread
CeilingNone
Temp23°C
Dew Point14°C (57% RH)
AAT20.7°C
QNH1015 hPa
Raw Report
METAR YMTG 160700Z AUTO 16010KT 9999 // NCD 23/14 Q1015=

Extra information for YMTG:More info

Social comments